F/V Pasiphae 2 — FMFN — position and weather

sailwx.info

Track history (hours):
 
Tides and Currents Weather Stations Pressure Air Temp Water Temp Dewpoint Dewpoint Depression Visibility Wind Speed Wind Dir Waves Ship Positions

F/V Pasiphae 2

Last reported at 2017-Mar-23 04:05 UTC. Time now 2017-Mar-24 04:09 UTC.
Position N 47°16' W 003°23'.

Length 14 m.

Type: Fishing. MMSI: 228224800.

Date/timePositionNaut miles runAvg speedWind from/ knotsBaromVisibWave heightAir tempDewpointWater temp
2017-Mar-23 04:05N 47°16' W 003°23'5 8.4
2017-Mar-23 03:32N 47°20' W 003°23'8 8.7
2017-Mar-23 02:33N 47°29' W 003°23'9 8.8
2017-Mar-23 01:34N 47°38' W 003°22'6 6.1
2017-Mar-23 00:34N 47°44' W 003°22'8 8.5
2017-Mar-22 23:33N 47°35' W 003°23'9 9.1
2017-Mar-22 22:34N 47°26' W 003°24'9 9.2
2017-Mar-22 21:32N 47°17' W 003°26'4 0.2
2017-Mar-22 03:32N 47°21' W 003°25'8 8.2
2017-Mar-22 02:33N 47°29' W 003°23'8 8.0
2017-Mar-22 01:34N 47°37' W 003°22'7 6.9
2017-Mar-22 00:34N 47°44' W 003°22'5 5.4
2017-Mar-21 23:34N 47°38' W 003°22'9 8.8
2017-Mar-21 22:33N 47°30' W 003°26'9 9.1
2017-Mar-21 21:34N 47°22' W 003°31'5 0.3
2017-Mar-21 03:33N 47°22' W 003°25'9 8.9
2017-Mar-21 02:33N 47°31' W 003°23'9 9.1
2017-Mar-21 01:33N 47°40' W 003°22'2 2.3
2017-Mar-21 00:33N 47°43' W 003°22'9 8.7
2017-Mar-20 23:33N 47°34' W 003°23'9 8.7
2017-Mar-20 22:33N 47°26' W 003°28'9 8.6
2017-Mar-20 21:32N 47°17' W 003°32'9 0.5
2017-Mar-20 05:23N 47°11' W 003°24'7 8.7
2017-Mar-20 04:34N 47°18' W 003°24'9 8.8
2017-Mar-20 03:33N 47°27' W 003°23'9 8.9
2017-Mar-20 02:34N 47°35' W 003°23'8 8.5
2017-Mar-20 01:34N 47°44' W 003°22'1 0.0
2017-Mar-18 00:30N 47°43' W 003°22'8 8.6
2017-Mar-17 23:33N 47°35' W 003°23'8 8.4
2017-Mar-17 22:33N 47°27' W 003°28'8 7.7
2017-Mar-17 21:33N 47°20' W 003°33'8 3.7
2017-Mar-17 19:30N 47°13' W 003°31'7 3.3
2017-Mar-17 17:23N 47°06' W 003°27'5 1.1
2017-Mar-17 13:14N 47°02' W 003°25'18 2.0
2017-Mar-17 04:33N 47°19' W 003°22'9 8.8
2017-Mar-17 03:33N 47°28' W 003°22'9 9.0
2017-Mar-17 02:33N 47°37' W 003°22'7 6.7
2017-Mar-17 01:33N 47°44' W 003°22'0 0.1
2017-Mar-17 00:33N 47°44' W 003°22'2 2.3
2017-Mar-16 23:33N 47°41' W 003°22'9 8.9
2017-Mar-16 22:33N 47°33' W 003°22'9 8.9
2017-Mar-16 21:33N 47°24' W 003°23'9 8.9
2017-Mar-16 20:33N 47°15' W 003°23'9 8.9
2017-Mar-16 19:33N 47°06' W 003°23'5 4.8
2017-Mar-16 18:33N 47°01' W 003°23'3 3.2
2017-Mar-16 17:32N 46°58' W 003°21'3 1.0
2017-Mar-16 15:03N 47°00' W 003°23'2 3.1
2017-Mar-16 14:33N 46°59' W 003°21'3 1.3
2017-Mar-16 12:13N 47°00' W 003°26'3 3.8
2017-Mar-16 11:33N 46°58' W 003°26'3 0.8
2017-Mar-16 07:26N 47°00' W 003°23'3 2.7
2017-Mar-16 06:28N 46°58' W 003°22'3 1.4
2017-Mar-16 04:18N 47°00' W 003°24'3 3.4
2017-Mar-16 03:29N 46°58' W 003°21'2 0.7
2017-Mar-16 00:31N 47°00' W 003°23'4 3.1
2017-Mar-15 23:23N 46°57' W 003°22'21 1.2
2017-Mar-15 05:33N 47°17' W 003°29'10 9.2
2017-Mar-15 04:24N 47°27' W 003°26'8 9.1
2017-Mar-15 03:33N 47°35' W 003°23'9 8.7
2017-Mar-15 02:33N 47°44' W 003°22'0 0.1
2017-Mar-15 01:33N 47°44' W 003°22'0 0.0
2017-Mar-15 00:33N 47°44' W 003°22'8 8.1
2017-Mar-14 23:33N 47°36' W 003°23'7 6.9
2017-Mar-14 22:33N 47°31' W 003°30'4 3.5
2017-Mar-14 21:28N 47°27' W 003°31'3 3.8
2017-Mar-14 20:33N 47°25' W 003°27'4 3.7
2017-Mar-14 19:33N 47°21' W 003°27'4 3.7
2017-Mar-14 18:33N 47°19' W 003°23'3 3.4
2017-Mar-14 17:33N 47°16' W 003°19'1 1.1
2017-Mar-14 16:32N 47°17' W 003°20'1 0.6
2017-Mar-14 15:33N 47°18' W 003°21'3 0.4
2017-Mar-14 07:22N 47°17' W 003°26'3 3.1
2017-Mar-14 06:32N 47°15' W 003°28'2 1.6
2017-Mar-14 05:17N 47°17' W 003°27'2 2.9
2017-Mar-14 04:33N 47°16' W 003°30'2 2.4
2017-Mar-14 03:33N 47°18' W 003°27'2 2.4
2017-Mar-14 02:32N 47°15' W 003°28'3 2.7
2017-Mar-14 01:34N 47°17' W 003°25'3 2.7
2017-Mar-14 00:34N 47°15' W 003°28'3 2.9
2017-Mar-13 23:29N 47°18' W 003°26'2 1.7
2017-Mar-13 22:33N 47°16' W 003°25'3 3.2
2017-Mar-13 21:29N 47°17' W 003°30'7 1.1
2017-Mar-13 14:32N 47°23' W 003°35'4 3.6
2017-Mar-13 13:32N 47°25' W 003°40'1 1.1
2017-Mar-13 12:33N 47°25' W 003°38'1 1.0
2017-Mar-13 11:33N 47°26' W 003°38'3 2.6
2017-Mar-13 10:32N 47°26' W 003°42'2 2.0
2017-Mar-13 09:33N 47°25' W 003°42'3 3.5
2017-Mar-13 08:33N 47°27' W 003°38'4 3.5
2017-Mar-13 07:33N 47°31' W 003°37'3 2.6
2017-Mar-13 06:33N 47°30' W 003°41'3 3.4
2017-Mar-13 05:33N 47°28' W 003°37'3 2.8
2017-Mar-13 04:33N 47°30' W 003°34'  
Track history (hours):
 
Tides and Currents Weather Stations Pressure Air Temp Water Temp Dewpoint Dewpoint Depression Visibility Wind Speed Wind Dir Waves Ship Positions

F/V Pasiphae 2

Last reported at 2017-Mar-23 04:05 UTC. Time now 2017-Mar-24 04:09 UTC.
Position N 47°16' W 003°23'.

Length 14 m.

Type: Fishing. MMSI: 228224800.

Date/timePositionNaut miles runAvg speedWind from/ knotsBaromVisibWave heightAir tempDewpointWater temp
2017-Mar-23 04:05N 47°16' W 003°23'5 8.4
2017-Mar-23 03:32N 47°20' W 003°23'8 8.7
2017-Mar-23 02:33N 47°29' W 003°23'9 8.8
2017-Mar-23 01:34N 47°38' W 003°22'6 6.1
2017-Mar-23 00:34N 47°44' W 003°22'8 8.5
2017-Mar-22 23:33N 47°35' W 003°23'9 9.1
2017-Mar-22 22:34N 47°26' W 003°24'9 9.2
2017-Mar-22 21:32N 47°17' W 003°26'4 0.2
2017-Mar-22 03:32N 47°21' W 003°25'8 8.2
2017-Mar-22 02:33N 47°29' W 003°23'8 8.0
2017-Mar-22 01:34N 47°37' W 003°22'7 6.9
2017-Mar-22 00:34N 47°44' W 003°22'5 5.4
2017-Mar-21 23:34N 47°38' W 003°22'9 8.8
2017-Mar-21 22:33N 47°30' W 003°26'9 9.1
2017-Mar-21 21:34N 47°22' W 003°31'5 0.3
2017-Mar-21 03:33N 47°22' W 003°25'9 8.9
2017-Mar-21 02:33N 47°31' W 003°23'9 9.1
2017-Mar-21 01:33N 47°40' W 003°22'2 2.3
2017-Mar-21 00:33N 47°43' W 003°22'9 8.7
2017-Mar-20 23:33N 47°34' W 003°23'9 8.7
2017-Mar-20 22:33N 47°26' W 003°28'9 8.6
2017-Mar-20 21:32N 47°17' W 003°32'9 0.5
2017-Mar-20 05:23N 47°11' W 003°24'7 8.7
2017-Mar-20 04:34N 47°18' W 003°24'9 8.8
2017-Mar-20 03:33N 47°27' W 003°23'9 8.9
2017-Mar-20 02:34N 47°35' W 003°23'8 8.5
2017-Mar-20 01:34N 47°44' W 003°22'1 0.0
2017-Mar-18 00:30N 47°43' W 003°22'8 8.6
2017-Mar-17 23:33N 47°35' W 003°23'8 8.4
2017-Mar-17 22:33N 47°27' W 003°28'8 7.7
2017-Mar-17 21:33N 47°20' W 003°33'8 3.7
2017-Mar-17 19:30N 47°13' W 003°31'7 3.3
2017-Mar-17 17:23N 47°06' W 003°27'5 1.1
2017-Mar-17 13:14N 47°02' W 003°25'18 2.0
2017-Mar-17 04:33N 47°19' W 003°22'9 8.8
2017-Mar-17 03:33N 47°28' W 003°22'9 9.0
2017-Mar-17 02:33N 47°37' W 003°22'7 6.7
2017-Mar-17 01:33N 47°44' W 003°22'0 0.1
2017-Mar-17 00:33N 47°44' W 003°22'2 2.3
2017-Mar-16 23:33N 47°41' W 003°22'9 8.9
2017-Mar-16 22:33N 47°33' W 003°22'9 8.9
2017-Mar-16 21:33N 47°24' W 003°23'9 8.9
2017-Mar-16 20:33N 47°15' W 003°23'9 8.9
2017-Mar-16 19:33N 47°06' W 003°23'5 4.8
2017-Mar-16 18:33N 47°01' W 003°23'3 3.2
2017-Mar-16 17:32N 46°58' W 003°21'3 1.0
2017-Mar-16 15:03N 47°00' W 003°23'2 3.1
2017-Mar-16 14:33N 46°59' W 003°21'3 1.3
2017-Mar-16 12:13N 47°00' W 003°26'3 3.8
2017-Mar-16 11:33N 46°58' W 003°26'3 0.8
2017-Mar-16 07:26N 47°00' W 003°23'3 2.7
2017-Mar-16 06:28N 46°58' W 003°22'3 1.4
2017-Mar-16 04:18N 47°00' W 003°24'3 3.4
2017-Mar-16 03:29N 46°58' W 003°21'2 0.7
2017-Mar-16 00:31N 47°00' W 003°23'4 3.1
2017-Mar-15 23:23N 46°57' W 003°22'21 1.2
2017-Mar-15 05:33N 47°17' W 003°29'10 9.2
2017-Mar-15 04:24N 47°27' W 003°26'8 9.1
2017-Mar-15 03:33N 47°35' W 003°23'9 8.7
2017-Mar-15 02:33N 47°44' W 003°22'0 0.1
2017-Mar-15 01:33N 47°44' W 003°22'0 0.0
2017-Mar-15 00:33N 47°44' W 003°22'8 8.1
2017-Mar-14 23:33N 47°36' W 003°23'7 6.9
2017-Mar-14 22:33N 47°31' W 003°30'4 3.5
2017-Mar-14 21:28N 47°27' W 003°31'3 3.8
2017-Mar-14 20:33N 47°25' W 003°27'4 3.7
2017-Mar-14 19:33N 47°21' W 003°27'4 3.7
2017-Mar-14 18:33N 47°19' W 003°23'3 3.4
2017-Mar-14 17:33N 47°16' W 003°19'1 1.1
2017-Mar-14 16:32N 47°17' W 003°20'1 0.6
2017-Mar-14 15:33N 47°18' W 003°21'3 0.4
2017-Mar-14 07:22N 47°17' W 003°26'3 3.1
2017-Mar-14 06:32N 47°15' W 003°28'2 1.6
2017-Mar-14 05:17N 47°17' W 003°27'2 2.9
2017-Mar-14 04:33N 47°16' W 003°30'2 2.4
2017-Mar-14 03:33N 47°18' W 003°27'2 2.4
2017-Mar-14 02:32N 47°15' W 003°28'3 2.7
2017-Mar-14 01:34N 47°17' W 003°25'3 2.7
2017-Mar-14 00:34N 47°15' W 003°28'3 2.9
2017-Mar-13 23:29N 47°18' W 003°26'2 1.7
2017-Mar-13 22:33N 47°16' W 003°25'3 3.2
2017-Mar-13 21:29N 47°17' W 003°30'7 1.1
2017-Mar-13 14:32N 47°23' W 003°35'4 3.6
2017-Mar-13 13:32N 47°25' W 003°40'1 1.1
2017-Mar-13 12:33N 47°25' W 003°38'1 1.0
2017-Mar-13 11:33N 47°26' W 003°38'3 2.6
2017-Mar-13 10:32N 47°26' W 003°42'2 2.0
2017-Mar-13 09:33N 47°25' W 003°42'3 3.5
2017-Mar-13 08:33N 47°27' W 003°38'4 3.5
2017-Mar-13 07:33N 47°31' W 003°37'3 2.6
2017-Mar-13 06:33N 47°30' W 003°41'3 3.4
2017-Mar-13 05:33N 47°28' W 003°37'3 2.8
2017-Mar-13 04:33N 47°30' W 003°34'  

Dump ship's entire track history